Time;durP1;ratioP1;P1;durP2;ratioP2;P2;SDS_P1;SDS_P2;PMS_P1;PMS_P2;Temp;Humidity;BMP_temperature;BMP_pressure;BME280_temperature;BME280_humidity;BME280_pressure;Samples;Min_cycle;Max_cycle;Signal;HPM_P1;HPM_P2
2023/05/08 07:23:06;;;;;;;43.95;39.40;;;;;;;-145.79;100.00;77873.31;5334863;27;20384;-81
2023/05/08 07:25:37;;;;;;;45.42;40.83;;;;;;;-145.79;100.00;77864.81;5331911;28;20035;-80
2023/05/08 07:28:12;;;;;;;46.78;42.25;;;;;;;-145.79;100.00;77862.69;5335193;28;20020;-79
2023/05/08 07:30:50;;;;;;;43.57;39.37;;;;;;;-145.79;100.00;77862.69;5323058;28;20028;-78
2023/05/08 07:33:24;;;;;;;41.60;37.60;;;;;;;-145.79;100.00;77852.09;5325302;28;20085;-79
2023/05/08 07:35:58;;;;;;;41.40;37.42;;;;;;;-145.79;99.68;77843.63;5327412;27;20332;-79
2023/05/08 07:38:31;;;;;;;38.55;34.78;;;;;;;-145.79;99.33;77843.63;5339278;27;20024;-79
2023/05/08 07:41:06;;;;;;;39.17;35.42;;;;;;;-145.79;98.92;77835.13;5338582;28;20380;-80
2023/05/08 07:43:43;;;;;;;38.88;35.08;;;;;;;-145.79;98.37;77826.66;5343576;27;20023;-80
2023/05/08 07:46:17;;;;;;;36.25;32.80;;;;;;;-145.79;97.64;77822.41;5336054;27;20093;-79
2023/05/08 07:48:56;;;;;;;35.42;31.95;;;;;;;-145.79;96.86;77822.41;5324145;28;20038;-80
2023/05/08 07:51:31;;;;;;;33.15;29.95;;;;;;;-145.79;96.39;77820.31;5331074;28;20437;-79
2023/05/08 07:54:06;;;;;;;34.70;31.45;;;;;;;-145.79;96.41;77801.22;5324969;28;20347;-79
2023/05/08 07:56:40;;;;;;;34.97;31.75;;;;;;;-145.79;95.99;77801.22;5332980;27;20031;-79
2023/05/08 07:59:20;;;;;;;33.20;30.20;;;;;;;-145.79;95.36;77792.75;5333080;27;20122;-80
2023/05/08 08:01:57;;;;;;;31.92;28.85;;;;;;;-145.79;94.52;77782.16;5325346;28;20040;-79
2023/05/08 08:04:36;;;;;;;31.83;28.90;;;;;;;-145.79;93.42;77784.25;5324034;27;20038;-80
2023/05/08 08:07:09;;;;;;;32.22;29.35;;;;;;;-145.79;92.97;77775.78;5323669;28;20069;-79
2023/05/08 08:09:43;;;;;;;33.60;30.55;;;;;;;-145.79;93.22;77767.31;5335019;27;20023;-78
2023/05/08 08:12:19;;;;;;;;;;;;;;;-145.79;92.69;77748.22;5347120;28;20024;-78
2023/05/08 08:14:51;;;;;;;33.17;29.92;;;;;;;-145.79;91.29;77773.66;5336476;27;20397;-79
2023/05/08 08:17:38;;;;;;;50.65;45.90;;;;;;;-145.79;91.11;77777.91;5328000;28;20032;-79
2023/05/08 08:20:11;;;;;;;41.92;38.08;;;;;;;-145.79;91.66;77773.66;5327955;28;20027;-79
2023/05/08 08:22:49;;;;;;;30.33;27.52;;;;;;;-145.79;91.78;77767.31;5325243;28;20055;-80
2023/05/08 08:25:23;;;;;;;28.27;25.73;;;;;;;-145.79;91.31;77750.34;5329322;28;20108;-79
2023/05/08 08:27:57;;;;;;;29.00;26.30;;;;;;;-145.79;89.34;77771.53;5343204;27;20031;-79
2023/05/08 08:30:28;;;;;;;31.50;28.52;;;;;;;-145.79;90.69;77746.09;5348358;27;20019;-79
2023/05/08 08:33:06;;;;;;;28.80;26.10;;;;;;;-145.79;91.03;77737.63;5343509;28;20105;-80
2023/05/08 08:35:38;;;;;;;28.83;25.95;;;;;;;-145.79;90.24;77741.88;5331670;28;20027;-80
2023/05/08 08:38:10;;;;;;;30.13;27.20;;;;;;;-145.79;90.26;77729.16;5326450;28;20027;-80
2023/05/08 08:40:44;;;;;;;31.67;28.95;;;;;;;-145.79;90.55;77720.66;5319265;28;20035;-79
2023/05/08 08:43:18;;;;;;;31.17;28.42;;;;;;;-145.79;90.28;77712.19;5311824;28;20021;-80
2023/05/08 08:45:51;;;;;;;31.08;28.27;;;;;;;-145.79;90.21;77707.94;5326398;28;20036;-80
2023/05/08 08:48:27;;;;;;;30.17;27.48;;;;;;;-145.79;89.45;77703.72;5314435;28;20023;-78
2023/05/08 08:51:05;;;;;;;30.50;27.80;;;;;;;-145.79;89.43;77697.34;5319481;28;20054;-78
2023/05/08 08:53:43;;;;;;;28.30;25.67;;;;;;;-145.79;87.75;77688.88;5313466;28;20065;-78
2023/05/08 08:56:15;;;;;;;27.88;25.38;;;;;;;-145.79;88.17;77691.00;5332989;27;20035;-79
2023/05/08 08:58:53;;;;;;;29.25;26.55;;;;;;;-145.79;87.83;77684.63;5327761;28;20036;-81
2023/05/08 09:01:39;;;;;;;28.25;25.85;;;;;;;-145.79;87.69;77699.47;5310565;28;20019;-76
2023/05/08 09:04:14;;;;;;;27.80;25.40;;;;;;;-145.79;87.02;77714.31;5310950;28;20497;-79
2023/05/08 09:06:50;;;;;;;30.02;27.23;;;;;;;-145.79;87.86;77697.34;5329023;28;20102;-79
2023/05/08 09:09:27;;;;;;;30.95;28.13;;;;;;;-145.79;88.81;77693.13;5308347;28;20120;-80
2023/05/08 09:12:07;;;;;;;30.15;27.58;;;;;;;-145.79;89.38;77686.75;5306427;28;20020;-79
2023/05/08 09:14:47;;;;;;;32.15;29.35;;;;;;;-145.79;88.41;77703.72;5307896;28;20036;-80
2023/05/08 09:17:49;;;;;;;30.98;28.23;;;;;;;-145.79;89.17;77682.50;5314386;28;20040;-78
2023/05/08 09:20:21;;;;;;;31.45;28.73;;;;;;;-145.79;88.95;77676.16;5306813;28;20040;-79
2023/05/08 09:23:06;;;;;;;32.15;29.25;;;;;;;-145.79;89.26;77684.63;5312439;28;20051;-78
2023/05/08 09:25:50;;;;;;;36.97;33.37;;;;;;;-145.79;88.48;77682.50;5308323;28;20386;-79
2023/05/08 09:28:24;;;;;;;35.13;31.77;;;;;;;-145.79;88.62;77674.03;5316300;28;20590;-79
2023/05/08 09:30:58;;;;;;;35.03;31.83;;;;;;;-145.79;88.08;77665.56;5304550;28;20024;-79
2023/05/08 09:33:31;;;;;;;36.40;33.20;;;;;;;-145.79;88.30;77665.56;5317961;28;20383;-79
2023/05/08 09:36:03;;;;;;;36.72;33.20;;;;;;;-145.79;88.03;77665.56;5303588;28;20400;-78
2023/05/08 09:38:37;;;;;;;37.85;34.30;;;;;;;-145.79;89.00;77657.06;5304499;28;20024;-76
2023/05/08 09:41:14;;;;;;;39.80;35.85;;;;;;;-145.79;88.99;77652.84;5303756;28;20028;-78
2023/05/08 09:44:03;;;;;;;38.03;34.45;;;;;;;-145.79;89.11;77646.47;5309472;28;20520;-79
2023/05/08 09:46:37;;;;;;;41.67;37.47;;;;;;;-145.79;89.87;77654.97;5317689;28;20058;-77
2023/05/08 09:49:16;;;;;;;41.83;37.72;;;;;;;-145.79;90.33;77659.19;5303821;28;20047;-78
2023/05/08 09:51:53;;;;;;;42.92;38.75;;;;;;;-145.79;90.75;77665.56;5318641;28;20023;-77
2023/05/08 09:54:25;;;;;;;43.50;39.03;;;;;;;-145.79;90.47;77657.06;5325921;28;20047;-78
2023/05/08 09:56:56;;;;;;;44.80;40.17;;;;;;;-145.79;90.50;77661.31;5324796;28;20023;-77
2023/05/08 09:59:32;;;;;;;42.00;37.33;;;;;;;-145.79;89.74;77661.31;5317166;28;20024;-77
2023/05/08 10:02:11;;;;;;;43.75;39.20;;;;;;;-145.79;90.43;77661.31;5302747;28;20028;-77
2023/05/08 10:04:46;;;;;;;44.45;40.03;;;;;;;-145.79;90.42;77652.84;5304747;28;20028;-78
2023/05/08 10:07:28;;;;;;;42.97;38.45;;;;;;;-145.79;89.53;77661.31;5305951;28;20024;-78
2023/05/08 10:10:05;;;;;;;41.55;37.35;;;;;;;-145.79;89.50;77659.19;5327326;28;20090;-77
2023/05/08 10:15:40;;;;;;;43.67;39.25;;;;;;;-145.79;88.26;77650.72;5297197;28;20080;-74
2023/05/08 10:18:15;;;;;;;43.20;38.90;;;;;;;-145.79;87.65;77650.72;5304016;28;20111;-73
2023/05/08 10:20:48;;;;;;;41.72;37.53;;;;;;;-145.79;87.31;77650.72;5304513;28;20078;-72
2023/05/08 10:23:19;;;;;;;73.45;66.32;;;;;;;-145.79;86.58;77654.97;5303640;28;20036;-75
2023/05/08 10:25:58;;;;;;;86.43;77.30;;;;;;;-145.79;87.06;77652.84;5303968;28;20035;-73
2023/05/08 10:28:50;;;;;;;43.03;38.67;;;;;;;-145.79;87.44;77644.34;5323300;28;20408;-70
2023/05/08 10:31:24;;;;;;;40.70;36.58;;;;;;;-145.79;87.13;77644.34;5324073;28;20051;-71
2023/05/08 10:34:00;;;;;;;43.53;39.00;;;;;;;-145.79;87.30;77640.13;5324625;28;20020;-70
2023/05/08 10:36:34;;;;;;;44.05;39.40;;;;;;;-145.79;86.75;77644.34;5316622;28;20405;-72
2023/05/08 10:39:06;;;;;;;42.38;38.08;;;;;;;-145.79;86.72;77638.00;5306224;28;20016;-73
2023/05/08 10:41:38;;;;;;;42.67;38.38;;;;;;;-145.79;85.97;77629.53;5309389;28;20089;-72
2023/05/08 10:44:10;;;;;;;42.20;37.78;;;;;;;-145.79;86.43;77629.53;5303019;28;20024;-71
2023/05/08 10:46:54;;;;;;;47.72;42.58;;;;;;;-145.79;85.72;77623.16;5303265;28;20028;-72
2023/05/08 10:50:00;;;;;;;41.60;37.25;;;;;;;-145.79;85.65;77612.56;5303208;28;20391;-72
2023/05/08 10:53:06;;;;;;;42.35;37.80;;;;;;;-145.79;84.95;77606.19;5309089;28;20027;-72
2023/05/08 10:55:40;;;;;;;41.30;37.00;;;;;;;-145.79;84.77;77595.59;5295074;28;20040;-71
2023/05/08 10:58:29;;;;;;;44.07;39.23;;;;;;;-145.79;85.23;77585.00;5303687;28;20027;-71
2023/05/08 11:01:05;;;;;;;48.03;42.83;;;;;;;-145.79;86.85;77576.53;5303200;28;20050;-71
2023/05/08 11:03:45;;;;;;;49.20;44.05;;;;;;;-145.79;86.81;77572.28;5303002;28;20495;-70
2023/05/08 11:06:38;;;;;;;51.35;44.47;;;;;;;-145.79;86.62;77570.16;5303806;28;20032;-73
2023/05/08 11:09:14;;;;;;;48.42;43.42;;;;;;;-145.79;86.21;77568.03;5302754;28;20032;-73
2023/05/08 11:12:21;;;;;;;48.53;43.42;;;;;;;-145.79;85.44;77585.00;5315313;28;20036;-70
2023/05/08 11:15:05;;;;;;;48.05;42.72;;;;;;;-145.79;85.91;77587.13;5302647;28;20032;-74
2023/05/08 11:17:38;;;;;;;46.58;41.05;;;;;;;-145.79;85.88;77576.53;5305126;28;20024;-73
2023/05/08 11:20:09;;;;;;;47.13;42.13;;;;;;;-145.79;85.67;77572.28;5302537;28;20135;-71
2023/05/08 11:22:47;;;;;;;49.03;41.78;;;;;;;-145.79;85.33;77563.81;5302534;28;20044;-73
2023/05/08 11:25:43;;;;;;;43.70;39.38;;;;;;;-145.79;85.46;77546.84;5302565;28;20020;-73
2023/05/08 11:28:15;;;;;;;45.97;41.35;;;;;;;-145.79;83.81;77546.84;5306918;28;20019;-73
2023/05/08 11:30:53;;;;;;;45.90;41.05;;;;;;;-145.79;84.14;77529.88;5323869;28;20027;-73
2023/05/08 11:33:29;;;;;;;48.03;42.78;;;;;;;-145.79;83.85;77495.97;5313977;28;20118;-72
2023/05/08 11:36:06;;;;;;;43.15;38.38;;;;;;;-145.79;81.10;77493.84;5303163;28;20487;-74
2023/05/08 11:38:38;;;;;;;41.17;36.97;;;;;;;-145.79;79.61;77470.53;5303248;28;20051;-73
2023/05/08 11:41:10;;;;;;;42.58;38.08;;;;;;;-145.79;79.30;77476.91;5315212;28;20111;-74
2023/05/08 11:44:04;;;;;;;43.88;39.60;;;;;;;-145.79;79.71;77464.19;5323903;28;20043;-74
2023/05/08 11:46:41;;;;;;;42.47;38.22;;;;;;;-145.79;79.61;77442.97;5324140;28;20058;-74
2023/05/08 11:49:17;;;;;;;43.65;39.08;;;;;;;-145.79;77.71;77432.38;5323115;28;20478;-74
2023/05/08 11:51:53;;;;;;;43.85;39.55;;;;;;;-145.79;76.61;77419.66;5302822;28;20040;-73
2023/05/08 11:54:29;;;;;;;42.97;38.35;;;;;;;-145.79;76.49;77411.19;5302779;28;20455;-74
2023/05/08 11:57:01;;;;;;;40.05;35.95;;;;;;;-145.79;75.01;77413.31;5302051;28;20103;-74
2023/05/08 11:59:36;;;;;;;37.05;33.28;;;;;;;-145.79;75.97;77377.28;5315574;28;20043;-75
2023/05/08 12:02:07;;;;;;;35.30;31.75;;;;;;;-145.79;73.39;77358.19;5322814;28;20420;-73
2023/05/08 12:04:43;;;;;;;37.85;33.92;;;;;;;-145.79;73.60;77375.16;5323340;28;20024;-73
2023/05/08 12:07:15;;;;;;;34.33;30.90;;;;;;;-145.79;73.08;77360.31;5323086;28;20027;-74
2023/05/08 12:09:46;;;;;;;77.70;69.95;;;;;;;-145.79;72.16;77347.59;5326589;28;20024;-74
2023/05/08 12:12:20;;;;;;;37.40;33.60;;;;;;;-145.79;71.21;77343.38;5325374;28;20109;-74
2023/05/08 12:14:52;;;;;;;31.70;28.45;;;;;;;-145.79;70.53;77345.47;5323803;28;20100;-75
2023/05/08 12:17:23;;;;;;;33.38;30.00;;;;;;;-145.79;71.53;77334.88;5316352;28;20019;-76
2023/05/08 12:19:55;;;;;;;32.70;29.38;;;;;;;-145.79;70.84;77334.88;5318057;28;20028;-74
2023/05/08 12:22:26;;;;;;;31.65;28.27;;;;;;;-145.79;71.33;77317.94;5317244;28;20067;-75
2023/05/08 12:24:58;;;;;;;34.00;30.48;;;;;;;-145.79;68.85;77307.31;5313221;28;20110;-73
2023/05/08 12:27:29;;;;;;;29.10;26.20;;;;;;;-145.79;70.07;77279.78;5314551;28;20073;-73
2023/05/08 12:30:06;;;;;;;26.83;24.05;;;;;;;-145.79;69.06;77271.28;5323861;28;20036;-73
2023/05/08 12:32:45;;;;;;;21.83;19.63;;;;;;;-145.79;66.66;77262.81;5311930;28;20061;-72
2023/05/08 12:35:20;;;;;;;24.02;21.45;;;;;;;-145.79;66.17;77247.97;5327533;28;20042;-72
2023/05/08 12:37:52;;;;;;;22.40;20.10;;;;;;;-145.79;66.21;77224.66;5324486;28;20107;-72
2023/05/08 12:40:31;;;;;;;20.40;18.35;;;;;;;-145.79;63.81;77245.84;5323576;28;20103;-72
2023/05/08 12:43:03;;;;;;;21.38;19.20;;;;;;;-145.79;64.62;77254.34;5317095;28;20023;-73
2023/05/08 12:45:41;;;;;;;20.77;18.40;;;;;;;-145.79;65.59;77241.63;5316846;28;20020;-75
2023/05/08 12:48:17;;;;;;;18.52;16.63;;;;;;;-145.79;64.76;77237.38;5305435;28;20024;-75
2023/05/08 12:50:48;;;;;;;;;;;;;;;-145.79;64.70;77211.94;5316111;28;20051;-72
2023/05/08 12:53:20;;;;;;;17.35;15.65;;;;;;;-145.79;63.97;77214.06;5327151;28;19915;-73
2023/05/08 12:55:57;;;;;;;17.58;15.77;;;;;;;-145.79;63.95;77163.19;5326855;28;20107;-75
2023/05/08 12:58:30;;;;;;;17.98;16.05;;;;;;;-145.79;62.70;77182.28;5314478;28;20031;-72
2023/05/08 13:01:14;;;;;;;17.17;15.48;;;;;;;-145.79;63.14;77190.75;5305171;28;20552;-73
2023/05/08 13:03:51;;;;;;;16.73;15.00;;;;;;;-145.79;63.43;77195.00;5305310;28;20019;-74
2023/05/08 13:06:23;;;;;;;18.52;16.55;;;;;;;-145.79;62.64;77195.00;5304267;28;20080;-76
2023/05/08 13:08:54;;;;;;;20.75;18.45;;;;;;;-145.79;63.11;77178.03;5305972;28;20028;-74
2023/05/08 13:11:37;;;;;;;23.33;20.92;;;;;;;-145.79;63.52;77178.03;5326063;28;20026;-74
2023/05/08 13:14:08;;;;;;;23.25;20.90;;;;;;;-145.79;63.28;77182.28;5313768;28;20028;-75
2023/05/08 13:16:44;;;;;;;22.52;20.20;;;;;;;-145.79;64.03;77156.84;5305520;28;20069;-76
2023/05/08 13:19:16;;;;;;;23.10;20.73;;;;;;;-145.79;63.35;77152.59;5304216;28;20414;-73
2023/05/08 13:21:48;;;;;;;24.15;20.80;;;;;;;-145.79;63.45;77165.31;5304874;28;20470;-72
2023/05/08 13:24:19;;;;;;;23.80;21.30;;;;;;;-145.79;64.49;77178.03;5304116;28;20069;-73
2023/05/08 13:26:51;;;;;;;23.77;20.70;;;;;;;-145.79;63.45;77182.28;5305011;28;20042;-73
2023/05/08 13:29:24;;;;;;;22.52;20.23;;;;;;;-145.79;64.17;77165.31;5304706;28;20020;-73
2023/05/08 13:31:58;;;;;;;24.27;21.65;;;;;;;-145.79;63.29;77152.59;5310823;28;20020;-72
2023/05/08 13:34:29;;;;;;;23.90;21.35;;;;;;;-145.79;63.57;77148.34;5325420;28;20038;-73
2023/05/08 13:37:01;;;;;;;25.13;22.42;;;;;;;-145.79;64.47;77139.88;5313278;28;20032;-73
2023/05/08 13:39:36;;;;;;;27.10;24.42;;;;;;;-145.79;64.49;77156.84;5309749;28;20019;-74
2023/05/08 13:42:10;;;;;;;26.40;23.63;;;;;;;-145.79;63.87;77148.34;5324786;28;20027;-77
2023/05/08 13:44:42;;;;;;;31.02;25.05;;;;;;;-145.79;64.20;77127.16;5324960;28;20016;-74
2023/05/08 13:47:13;;;;;;;32.13;28.58;;;;;;;-145.79;64.33;77120.81;5304292;28;20024;-74
2023/05/08 13:49:46;;;;;;;25.35;22.75;;;;;;;-145.79;63.90;77137.75;5304588;28;20035;-73
2023/05/08 13:52:17;;;;;;;28.58;24.30;;;;;;;-145.79;63.60;77150.47;5303994;28;20028;-73
2023/05/08 13:54:48;;;;;;;28.35;25.20;;;;;;;-145.79;63.90;77150.47;5303238;28;20039;-73
2023/05/08 13:57:20;;;;;;;28.05;25.08;;;;;;;-145.79;63.98;77146.25;5304478;28;20055;-74
2023/05/08 13:59:51;;;;;;;37.92;33.85;;;;;;;-145.79;64.52;77120.81;5306942;28;20486;-75
2023/05/08 14:02:26;;;;;;;28.02;24.38;;;;;;;-145.79;63.17;77125.03;5332608;28;20024;-75
2023/05/08 14:04:58;;;;;;;34.30;26.55;;;;;;;-145.79;62.87;77144.13;5328300;28;20102;-77
2023/05/08 14:07:29;;;;;;;29.70;25.17;;;;;;;-145.79;63.71;77139.88;5306133;28;20104;-76
2023/05/08 14:10:01;;;;;;;30.55;25.52;;;;;;;-145.79;63.43;77163.19;5304524;28;20479;-76
2023/05/08 14:12:35;;;;;;;32.80;28.75;;;;;;;-145.79;64.08;77150.47;5306846;28;20114;-77
2023/05/08 14:15:07;;;;;;;49.67;43.65;;;;;;;-145.79;64.49;77133.53;5311479;28;20063;-77
2023/05/08 14:17:41;;;;;;;30.60;25.90;;;;;;;-145.79;62.42;77148.34;5326452;28;20023;-75
2023/05/08 14:20:12;;;;;;;33.15;28.85;;;;;;;-145.79;65.19;77108.09;5313198;28;20040;-77
2023/05/08 14:22:43;;;;;;;29.75;25.85;;;;;;;-145.79;61.44;77127.16;5333741;28;20051;-74
2023/05/08 14:25:15;;;;;;;29.80;24.80;;;;;;;-145.79;61.58;77108.09;5318209;28;20506;-77
2023/05/08 14:27:46;;;;;;;28.33;25.05;;;;;;;-145.79;60.95;77099.63;5305986;28;20475;-77
2023/05/08 14:30:17;;;;;;;25.13;22.42;;;;;;;-145.79;60.93;77080.53;5303170;28;20113;-76
2023/05/08 14:32:49;;;;;;;30.35;25.67;;;;;;;-145.79;61.12;77101.72;5306951;28;20028;-76
2023/05/08 14:35:20;;;;;;;32.30;26.17;;;;;;;-145.79;61.49;77093.25;5304057;28;20576;-75
2023/05/08 14:37:51;;;;;;;33.25;27.33;;;;;;;-145.79;62.84;77101.72;5310111;28;20012;-75
2023/05/08 14:40:23;;;;;;;32.20;28.25;;;;;;;-145.79;62.03;77125.03;5313652;28;20490;-76
2023/05/08 14:42:54;;;;;;;31.45;27.17;;;;;;;-145.79;62.35;77129.28;5325550;28;20038;-76
2023/05/08 14:45:26;;;;;;;29.30;26.05;;;;;;;-145.79;62.12;77131.41;5326384;28;20126;-77
2023/05/08 14:47:57;;;;;;;30.13;26.90;;;;;;;-145.79;62.60;77144.13;5325332;28;20045;-76
2023/05/08 14:50:31;;;;;;;31.15;26.23;;;;;;;-145.79;62.77;77150.47;5325086;28;20024;-77
2023/05/08 14:53:03;;;;;;;31.10;27.73;;;;;;;-145.79;63.29;77154.72;5325901;28;20024;-79
2023/05/08 14:55:34;;;;;;;32.22;27.20;;;;;;;-145.79;63.29;77156.84;5324810;28;20026;-76
2023/05/08 14:58:12;;;;;;;30.70;25.65;;;;;;;-145.79;63.25;77154.72;5305967;28;20487;-76
2023/05/08 15:00:46;;;;;;;31.10;26.75;;;;;;;-145.79;63.71;77152.59;5303871;28;20032;-77
2023/05/08 15:03:18;;;;;;;34.50;29.07;;;;;;;-145.79;63.50;77161.06;5302899;28;20057;-75
2023/05/08 15:05:49;;;;;;;31.95;26.33;;;;;;;-145.79;63.48;77178.03;5309624;28;20285;-76
2023/05/08 15:08:20;;;;;;;31.60;27.92;;;;;;;-145.79;63.11;77190.75;5323827;28;20031;-75
2023/05/08 15:10:52;;;;;;;30.42;25.88;;;;;;;-145.79;64.06;77180.16;5313011;28;20035;-75
2023/05/08 15:13:24;;;;;;;41.30;36.72;;;;;;;-145.79;63.23;77175.91;5306762;28;20372;-76
2023/05/08 15:15:57;;;;;;;33.63;28.90;;;;;;;-145.79;62.87;77169.56;5326652;28;20102;-74
2023/05/08 15:18:28;;;;;;;31.55;27.40;;;;;;;-145.79;63.05;77161.06;5326592;28;20030;-75
2023/05/08 15:21:00;;;;;;;33.22;26.23;;;;;;;-145.79;63.01;77156.84;5328377;28;20043;-75
2023/05/08 15:23:31;;;;;;;30.55;26.90;;;;;;;-145.79;63.22;77156.84;5334152;28;20054;-76
2023/05/08 15:26:03;;;;;;;27.83;23.88;;;;;;;-145.79;61.91;77148.34;5325268;28;20026;-76
2023/05/08 15:28:34;;;;;;;38.72;33.22;;;;;;;-145.79;61.29;77144.13;5325697;28;20047;-73
2023/05/08 15:31:05;;;;;;;28.08;23.30;;;;;;;-145.79;60.36;77154.72;5315919;28;20028;-72
2023/05/08 15:33:39;;;;;;;27.75;22.77;;;;;;;-145.79;60.95;77146.25;5302321;28;20031;-72
2023/05/08 15:36:14;;;;;;;29.33;23.27;;;;;;;-145.79;60.62;77142.00;5303118;28;20032;-73
2023/05/08 15:38:48;;;;;;;29.70;23.45;;;;;;;-145.79;61.44;77127.16;5302253;28;20115;-73
2023/05/08 15:41:20;;;;;;;26.23;22.10;;;;;;;-145.79;61.33;77148.34;5301869;28;20054;-72
2023/05/08 15:43:51;;;;;;;26.27;22.05;;;;;;;-145.79;61.16;77148.34;5305465;28;20020;-72
2023/05/08 15:46:25;;;;;;;28.85;25.17;;;;;;;-145.79;60.63;77152.59;5306576;28;20489;-72
2023/05/08 15:48:57;;;;;;;29.00;22.35;;;;;;;-145.79;61.48;77144.13;5307156;28;20024;-72
2023/05/08 15:51:28;;;;;;;25.38;22.35;;;;;;;-145.79;61.14;77152.59;5309828;28;20028;-73
2023/05/08 15:53:59;;;;;;;30.42;23.25;;;;;;;-145.79;61.53;77146.25;5306042;28;20032;-72
2023/05/08 15:56:31;;;;;;;26.95;22.33;;;;;;;-145.79;60.76;77161.06;5315524;28;20024;-72
2023/05/08 15:59:02;;;;;;;25.48;21.80;;;;;;;-145.79;61.11;77154.72;5323517;28;20031;-73
2023/05/08 16:01:34;;;;;;;24.55;20.75;;;;;;;-145.79;61.94;77137.75;5305733;28;20035;-73
2023/05/08 16:04:08;;;;;;;26.55;22.25;;;;;;;-145.79;60.12;77169.56;5311759;28;20015;-72
2023/05/08 16:06:40;;;;;;;26.02;21.02;;;;;;;-145.79;60.71;77165.31;5306872;28;20024;-80
2023/05/08 16:09:11;;;;;;;23.10;20.48;;;;;;;-145.79;61.01;77167.44;5305933;28;20494;-75
2023/05/08 16:11:43;;;;;;;27.05;22.90;;;;;;;-145.79;61.86;77158.97;5306004;28;20027;-75
2023/05/08 16:14:15;;;;;;;27.70;22.45;;;;;;;-145.79;61.64;77163.19;5306515;28;20024;-76
2023/05/08 16:16:47;;;;;;;29.13;23.60;;;;;;;-145.79;61.79;77158.97;5305455;28;20016;-76
2023/05/08 16:19:18;;;;;;;29.63;23.55;;;;;;;-145.79;61.33;77158.97;5306643;28;20093;-74
2023/05/08 16:21:49;;;;;;;29.10;23.08;;;;;;;-145.79;60.79;77169.56;5311462;28;20039;-74
2023/05/08 16:24:21;;;;;;;27.77;23.67;;;;;;;-145.79;61.42;77169.56;5328917;28;20020;-73
2023/05/08 16:26:52;;;;;;;28.42;22.42;;;;;;;-145.79;61.78;77180.16;5327611;28;20046;-71
2023/05/08 16:29:24;;;;;;;24.63;21.38;;;;;;;-145.79;60.85;77199.22;5327024;28;20050;-73
2023/05/08 16:31:55;;;;;;;25.13;22.50;;;;;;;-145.79;61.37;77195.00;5329108;28;20016;-74
2023/05/08 16:34:26;;;;;;;30.20;24.90;;;;;;;-145.79;61.32;77199.22;5327515;28;20068;-74
2023/05/08 16:36:58;;;;;;;25.63;22.02;;;;;;;-145.79;62.00;77195.00;5326792;28;20059;-74
2023/05/08 16:39:29;;;;;;;25.10;20.67;;;;;;;-145.79;61.98;77182.28;5315662;28;20418;-74
2023/05/08 16:42:01;;;;;;;25.33;21.58;;;;;;;-145.79;61.48;77173.78;5306077;28;20024;-75
2023/05/08 16:44:34;;;;;;;26.05;22.23;;;;;;;-145.79;61.59;77161.06;5305190;28;20028;-75
2023/05/08 16:47:15;;;;;;;27.00;21.88;;;;;;;-145.79;62.22;77133.53;5305441;28;20012;-74
2023/05/08 16:49:46;;;;;;;23.65;20.88;;;;;;;-145.79;61.45;77144.13;5305379;28;20062;-74
2023/05/08 16:52:18;;;;;;;24.58;20.85;;;;;;;-145.79;60.48;77131.41;5304953;28;20455;-76
